X  Zatvori METAR podaci zračne luke     LGRX Patras Araxos Agamemnon Airport
Temperatura
55°F Temperatura
54°F Točka rosišta
94% Vlaga



Vjetar
0 MPS
0 KM/S
0 M/S
0 Čvorovi



Tišina
S
Trenutna situacija

Djelimično oblačno Djelimično oblačno
Tlak zraka 1016.92 (hPa) - 30.03 (inHg)
Vidljivost 6.2 (milje) - 10 (km)
Zračna luka
Kôd zračne luke LGRX

Lokacija: Patras Araxos Agamemnon Airport
Udaljenost: 108 (mi)

Metar:
LGRX 082250Z 00000KT 9999 FEW080 13/12 Q1017

Vrijeme: 09-12-2022 00:50 EET